Time;durP1;ratioP1;P1;durP2;ratioP2;P2;SDS_P1;SDS_P2;PMS_P1;PMS_P2;Temp;Humidity;BMP_temperature;BMP_pressure;BME280_temperature;BME280_humidity;BME280_pressure;Samples;Min_cycle;Max_cycle;Signal;HPM_P1;HPM_P2
2021/10/21 00:02:23;;;;;;;27.20;21.65;;;;;;;11.69;61.85;100449.63;5011673;28;20431;-81
2021/10/21 00:04:49;;;;;;;35.25;26.48;;;;;;;11.35;61.90;100396.81;5011690;28;20026;-81
2021/10/21 00:07:14;;;;;;;35.20;27.02;;;;;;;11.39;61.97;100407.91;5011925;28;20030;-81
2021/10/21 00:09:40;;;;;;;39.33;29.20;;;;;;;10.94;61.58;100340.38;5011767;28;20395;-81
2021/10/21 00:12:06;;;;;;;37.90;29.23;;;;;;;11.26;61.73;100394.31;5011654;28;20085;-81
2021/10/21 00:14:32;;;;;;;33.67;26.63;;;;;;;10.57;62.15;100290.56;5011250;28;20383;-81
2021/10/21 00:16:58;;;;;;;35.38;26.60;;;;;;;11.56;61.54;100453.72;5011310;28;20057;-81
2021/10/21 00:19:23;;;;;;;36.95;27.35;;;;;;;11.25;61.96;100417.28;5011600;28;20422;-81
2021/10/21 00:21:49;;;;;;;32.60;25.95;;;;;;;10.68;62.09;100321.13;5011720;28;20026;-81
2021/10/21 00:24:15;;;;;;;31.60;24.00;;;;;;;11.08;61.32;100389.13;5011623;28;20395;-76
2021/10/21 00:26:41;;;;;;;34.28;24.83;;;;;;;11.27;62.58;100425.88;4993689;28;20064;-76
2021/10/21 00:29:07;;;;;;;31.70;25.58;;;;;;;11.21;61.89;100412.50;5011385;28;20061;-76
2021/10/21 00:31:32;;;;;;;30.45;25.00;;;;;;;11.16;61.72;100410.34;5011272;28;20029;-76
2021/10/21 00:33:58;;;;;;;30.67;24.88;;;;;;;11.29;62.12;100429.19;5011398;28;20022;-76
2021/10/21 00:36:23;;;;;;;28.48;24.02;;;;;;;11.28;62.24;100432.84;4993671;28;20025;-77
2021/10/21 00:38:48;;;;;;;30.33;25.60;;;;;;;11.26;61.71;100424.22;5011371;28;20473;-76
2021/10/21 00:41:14;;;;;;;29.05;24.65;;;;;;;11.14;61.84;100399.06;5011035;28;20026;-76
2021/10/21 00:43:40;;;;;;;36.40;27.20;;;;;;;11.30;61.29;100408.88;5011586;28;20037;-76
2021/10/21 00:46:08;;;;;;;33.10;25.98;;;;;;;11.27;62.05;100412.66;4993717;28;20084;-76
2021/10/21 00:48:35;;;;;;;32.15;23.52;;;;;;;11.23;61.19;100413.97;4993647;28;20466;-76
2021/10/21 00:51:02;;;;;;;27.35;21.63;;;;;;;11.04;62.09;100395.72;5011199;28;20037;-76
2021/10/21 00:53:29;;;;;;;29.48;23.02;;;;;;;10.83;61.65;100375.00;5010946;28;20018;-76
2021/10/21 00:55:54;;;;;;;26.30;20.00;;;;;;;10.92;62.07;100410.22;5010910;28;20026;-76
2021/10/21 00:58:21;;;;;;;27.30;20.98;;;;;;;10.77;61.97;100392.31;5011051;28;20033;-76
2021/10/21 01:00:46;;;;;;;25.42;21.23;;;;;;;10.26;62.25;100308.72;5011131;28;20034;-76
2021/10/21 01:03:12;;;;;;;22.85;18.98;;;;;;;10.75;62.33;100389.00;5011061;28;20502;-76
2021/10/21 01:05:38;;;;;;;25.02;19.52;;;;;;;10.35;62.23;100325.41;4993436;28;20109;-76
2021/10/21 01:08:03;;;;;;;24.98;20.50;;;;;;;10.74;61.90;100378.59;4993476;28;20068;-76
2021/10/21 01:10:29;;;;;;;21.98;19.63;;;;;;;10.37;62.19;100326.91;5010960;28;20033;-76
2021/10/21 01:12:54;;;;;;;22.92;19.13;;;;;;;10.67;62.35;100374.94;5010987;28;20513;-76
2021/10/21 01:15:21;;;;;;;25.70;21.17;;;;;;;10.81;62.01;100395.47;5011266;28;20084;-76
2021/10/21 01:17:48;;;;;;;24.75;20.48;;;;;;;10.78;61.87;100390.50;5010774;28;20085;-76
2021/10/21 01:20:14;;;;;;;25.35;21.30;;;;;;;10.84;62.38;100387.22;5010820;28;20030;-76
2021/10/21 01:22:40;;;;;;;24.73;20.10;;;;;;;10.47;62.01;100340.84;5010866;28;20087;-76
2021/10/21 01:25:06;;;;;;;25.30;20.27;;;;;;;10.29;62.20;100294.38;5010804;28;20034;-77
2021/10/21 01:27:32;;;;;;;23.92;19.63;;;;;;;10.83;61.84;100381.13;5013930;28;20026;-77
2021/10/21 01:29:57;;;;;;;27.23;20.65;;;;;;;10.81;62.08;100376.97;5014249;28;20021;-77
2021/10/21 01:32:23;;;;;;;24.38;18.83;;;;;;;10.82;61.48;100382.09;5014309;28;20112;-76
2021/10/21 01:34:49;;;;;;;34.60;20.02;;;;;;;10.78;61.39;100390.50;5014512;28;20033;-77
2021/10/21 01:37:14;;;;;;;24.63;20.83;;;;;;;10.74;61.87;100383.88;4996710;28;20109;-76
2021/10/21 01:39:40;;;;;;;25.00;20.45;;;;;;;10.76;62.64;100380.09;5014427;28;20030;-76
2021/10/21 01:42:06;;;;;;;23.13;18.58;;;;;;;10.73;62.25;100377.78;5014253;28;20406;-76
2021/10/21 01:44:31;;;;;;;24.58;20.30;;;;;;;10.42;62.23;100314.09;5014266;28;20105;-76
2021/10/21 01:46:57;;;;;;;28.55;21.88;;;;;;;10.35;62.08;100293.75;4996456;28;20065;-76
2021/10/21 01:49:24;;;;;;;23.60;20.00;;;;;;;10.85;61.63;100378.31;5014187;28;20120;-76
2021/10/21 01:51:50;;;;;;;32.72;22.15;;;;;;;10.82;62.04;100371.53;5014233;28;20483;-76
2021/10/21 01:54:16;;;;;;;26.10;21.70;;;;;;;10.42;61.66;100308.00;5013912;28;20037;-76
2021/10/21 01:56:41;;;;;;;26.08;21.30;;;;;;;10.54;62.08;100335.78;5013986;28;20553;-76
2021/10/21 01:59:07;;;;;;;26.27;20.35;;;;;;;10.63;62.18;100345.38;5013796;28;20065;-76
2021/10/21 02:01:32;;;;;;;22.55;18.92;;;;;;;10.64;61.97;100354.97;5013732;28;20101;-76
2021/10/21 02:03:58;;;;;;;26.13;20.88;;;;;;;10.61;61.92;100347.34;5013861;28;20058;-76
2021/10/21 02:06:24;;;;;;;25.77;21.10;;;;;;;10.63;61.87;100369.16;5013732;28;20115;-76
2021/10/21 02:08:50;;;;;;;23.98;21.48;;;;;;;10.67;61.81;100367.84;5013785;28;20018;-76
2021/10/21 02:11:16;;;;;;;23.00;20.40;;;;;;;10.43;62.32;100325.50;4996127;28;20026;-76
2021/10/21 02:13:41;;;;;;;22.02;19.38;;;;;;;10.22;61.82;100301.28;4996104;28;20053;-76
2021/10/21 02:16:07;;;;;;;21.42;18.80;;;;;;;10.26;62.25;100306.06;5013620;28;20124;-76
2021/10/21 02:18:34;;;;;;;22.52;18.92;;;;;;;10.38;61.75;100319.81;4996135;28;20054;-76
2021/10/21 02:20:59;;;;;;;21.13;18.35;;;;;;;10.37;61.65;100308.44;5013608;28;20503;-76
2021/10/21 02:23:25;;;;;;;24.13;18.83;;;;;;;10.10;62.01;100269.84;5013402;28;20026;-76
2021/10/21 02:25:50;;;;;;;20.48;18.30;;;;;;;10.60;61.67;100347.50;5013350;28;20049;-76
2021/10/21 02:28:16;;;;;;;20.92;17.55;;;;;;;10.16;61.81;100292.13;5013336;28;20036;-76
2021/10/21 02:30:42;;;;;;;19.73;17.35;;;;;;;10.41;61.95;100351.22;5013395;28;20109;-76
2021/10/21 02:33:07;;;;;;;19.80;16.60;;;;;;;10.12;62.24;100311.91;4995639;28;20033;-76
2021/10/21 02:35:34;;;;;;;23.30;18.88;;;;;;;10.28;61.82;100346.34;5013184;28;20030;-76
2021/10/21 02:37:59;;;;;;;21.13;18.30;;;;;;;10.31;61.96;100353.94;4995366;28;20034;-76
2021/10/21 02:40:25;;;;;;;20.45;17.00;;;;;;;10.30;61.82;100341.72;4995373;28;20037;-76
2021/10/21 02:42:51;;;;;;;25.73;20.35;;;;;;;9.69;62.03;100246.84;5012843;28;20494;-76
2021/10/21 02:45:16;;;;;;;24.67;19.70;;;;;;;10.19;62.29;100329.59;5013143;28;20093;-76
2021/10/21 02:47:42;;;;;;;27.55;21.30;;;;;;;9.83;61.95;100294.59;5012735;28;20030;-76
2021/10/21 02:50:08;;;;;;;24.45;18.08;;;;;;;9.85;62.34;100304.97;5012754;28;20076;-76
2021/10/21 02:52:33;;;;;;;22.15;18.95;;;;;;;9.91;62.04;100306.16;5012634;28;20029;-76
2021/10/21 02:54:59;;;;;;;27.73;18.92;;;;;;;9.37;62.00;100261.44;5012695;28;20036;-77
2021/10/21 02:57:24;;;;;;;21.45;17.83;;;;;;;9.46;62.54;100301.84;5012827;28;20033;-76
2021/10/21 02:59:49;;;;;;;20.60;16.15;;;;;;;9.37;62.54;100273.78;5012785;28;20083;-76
2021/10/21 03:02:15;;;;;;;18.25;15.32;;;;;;;9.41;62.78;100280.41;5012666;28;20034;-76
2021/10/21 03:04:40;;;;;;;17.52;15.25;;;;;;;9.47;62.67;100285.06;5012514;28;20048;-76
2021/10/21 03:07:06;;;;;;;18.58;16.25;;;;;;;9.70;62.81;100339.00;5012398;28;20083;-76
2021/10/21 03:09:31;;;;;;;20.90;17.73;;;;;;;9.60;62.93;100325.03;5012368;28;20546;-76
2021/10/21 03:11:56;;;;;;;20.00;17.88;;;;;;;9.81;62.68;100346.66;5012325;28;20033;-76
2021/10/21 03:14:22;;;;;;;22.95;19.30;;;;;;;9.87;63.14;100345.22;5012612;28;20025;-76
2021/10/21 03:16:47;;;;;;;21.58;18.17;;;;;;;9.77;62.44;100315.47;4994736;28;20514;-76
2021/10/21 03:19:13;;;;;;;21.38;17.70;;;;;;;9.86;62.65;100344.38;5012384;28;20037;-76
2021/10/21 03:21:38;;;;;;;20.77;18.33;;;;;;;9.73;62.81;100330.78;5012365;28;20030;-76
2021/10/21 03:24:04;;;;;;;18.77;16.65;;;;;;;9.77;62.80;100344.47;5012364;28;20479;-76
2021/10/21 03:26:29;;;;;;;21.80;18.40;;;;;;;9.59;62.85;100304.09;5012106;28;20045;-76
2021/10/21 03:28:55;;;;;;;21.75;18.83;;;;;;;9.24;63.06;100251.28;5012327;28;20053;-76
2021/10/21 03:31:20;;;;;;;29.27;22.63;;;;;;;9.33;63.08;100281.16;5012320;28;20036;-76
2021/10/21 03:33:46;;;;;;;24.35;20.80;;;;;;;9.61;62.93;100321.41;5012124;28;20029;-76
2021/10/21 03:36:12;;;;;;;25.35;21.63;;;;;;;9.73;62.79;100335.22;4994350;28;20495;-76
2021/10/21 03:38:38;;;;;;;25.02;21.13;;;;;;;9.36;62.61;100264.22;4994564;28;20021;-76
2021/10/21 03:41:04;;;;;;;22.33;19.92;;;;;;;9.82;62.44;100332.50;4994468;28;20030;-76
2021/10/21 03:43:29;;;;;;;26.15;20.75;;;;;;;9.77;62.41;100326.03;5012164;28;20083;-76
2021/10/21 03:45:55;;;;;;;25.05;21.17;;;;;;;9.87;62.24;100324.13;5011741;28;20482;-76
2021/10/21 03:48:21;;;;;;;26.23;22.77;;;;;;;9.45;62.21;100261.50;5011476;28;20026;-76
2021/10/21 03:50:46;;;;;;;23.23;20.73;;;;;;;9.78;62.32;100309.22;5011755;28;20033;-76
2021/10/21 03:53:13;;;;;;;26.98;21.67;;;;;;;9.90;62.31;100322.97;5011793;28;20613;-76
2021/10/21 03:55:40;;;;;;;25.50;19.88;;;;;;;9.91;62.36;100314.91;4994166;28;20426;-76
2021/10/21 03:58:05;;;;;;;28.80;20.83;;;;;;;9.93;62.09;100328.78;5011775;28;20091;-76
2021/10/21 04:00:31;;;;;;;23.30;20.80;;;;;;;9.91;62.13;100301.72;5011805;28;20534;-76
2021/10/21 04:02:57;;;;;;;23.73;18.80;;;;;;;9.94;62.28;100308.50;5011775;28;20065;-76
2021/10/21 04:05:23;;;;;;;21.60;19.30;;;;;;;9.53;62.10;100250.19;5011664;28;20108;-76
2021/10/21 04:07:50;;;;;;;24.00;19.60;;;;;;;9.78;62.16;100285.47;4994007;28;20034;-76
2021/10/21 04:10:15;;;;;;;21.25;18.38;;;;;;;9.79;61.89;100287.13;5011744;28;20034;-76
2021/10/21 04:12:41;;;;;;;22.10;18.70;;;;;;;9.79;61.93;100281.84;5011709;28;20560;-76
2021/10/21 04:15:07;;;;;;;24.10;19.92;;;;;;;9.74;62.40;100274.41;4994117;28;20033;-76
2021/10/21 04:17:33;;;;;;;24.55;20.38;;;;;;;9.85;62.26;100304.97;5011465;28;20515;-76
2021/10/21 04:19:58;;;;;;;24.85;22.33;;;;;;;9.42;62.10;100230.16;5011544;28;20028;-76
2021/10/21 04:22:23;;;;;;;27.75;21.92;;;;;;;9.56;61.82;100250.69;5011419;28;20497;-76
2021/10/21 04:24:49;;;;;;;22.63;20.13;;;;;;;9.78;62.09;100291.59;5011425;28;20026;-76
2021/10/21 04:27:14;;;;;;;28.27;23.73;;;;;;;9.71;61.57;100276.53;5011313;28;20034;-76
2021/10/21 04:29:40;;;;;;;26.25;22.50;;;;;;;9.13;62.00;100204.09;5011544;28;20030;-76
2021/10/21 04:32:06;;;;;;;28.35;23.25;;;;;;;9.39;61.82;100258.63;5011463;28;20029;-76
2021/10/21 04:34:31;;;;;;;26.85;21.80;;;;;;;9.17;62.00;100237.06;5011540;28;20034;-76
2021/10/21 04:36:57;;;;;;;24.60;20.25;;;;;;;9.13;62.05;100253.31;5011416;28;20056;-76
2021/10/21 04:39:22;;;;;;;29.60;20.83;;;;;;;9.26;61.96;100252.94;5011577;28;20100;-76
2021/10/21 04:41:47;;;;;;;24.45;21.15;;;;;;;9.51;62.03;100287.25;4993732;28;20049;-76
2021/10/21 04:44:13;;;;;;;22.27;16.38;;;;;;;9.26;61.95;100266.94;5011388;28;20541;-77
2021/10/21 04:46:39;;;;;;;22.10;18.50;;;;;;;9.08;62.11;100247.69;5011414;28;20034;-76
2021/10/21 04:49:04;;;;;;;34.47;22.30;;;;;;;9.08;61.75;100239.78;5011242;28;20033;-76
2021/10/21 04:51:29;;;;;;;25.65;19.70;;;;;;;9.22;62.07;100269.06;5011408;28;20026;-76
2021/10/21 04:53:55;;;;;;;24.10;18.15;;;;;;;9.47;61.93;100296.44;4993467;28;20057;-76
2021/10/21 04:56:20;;;;;;;24.00;20.58;;;;;;;9.08;62.18;100237.16;5011169;28;20044;-76
2021/10/21 04:58:45;;;;;;;34.28;24.98;;;;;;;9.49;62.20;100302.38;5011171;28;20030;-76
2021/10/21 05:01:11;;;;;;;30.00;24.77;;;;;;;9.44;62.00;100294.09;4994834;28;20026;-76
2021/10/21 05:03:36;;;;;;;34.95;28.17;;;;;;;9.35;61.92;100287.09;5014821;28;20059;-76
2021/10/21 05:06:02;;;;;;;29.38;25.55;;;;;;;9.12;62.19;100270.09;4996880;28;20030;-76
2021/10/21 05:08:27;;;;;;;32.53;26.95;;;;;;;8.88;62.35;100231.16;5014826;28;20557;-76
2021/10/21 05:10:52;;;;;;;35.08;26.40;;;;;;;9.04;62.47;100256.88;5014733;28;20530;-76
2021/10/21 05:13:18;;;;;;;33.55;26.40;;;;;;;9.15;62.09;100269.81;5014667;28;20042;-76
2021/10/21 05:15:44;;;;;;;30.38;24.75;;;;;;;9.18;62.22;100272.13;5014705;28;20057;-76
2021/10/21 05:18:09;;;;;;;28.98;23.42;;;;;;;8.92;62.42;100240.47;5014481;28;20026;-76
2021/10/21 05:20:35;;;;;;;28.17;23.50;;;;;;;9.33;62.31;100293.50;5014508;28;20022;-76
2021/10/21 05:23:02;;;;;;;34.53;25.27;;;;;;;9.40;62.09;100299.81;5014461;28;20061;-76
2021/10/21 05:25:27;;;;;;;27.77;21.90;;;;;;;9.28;62.10;100274.69;5014416;28;20022;-76
2021/10/21 05:27:52;;;;;;;29.52;23.90;;;;;;;9.44;61.99;100286.19;5014320;28;20080;-76
2021/10/21 05:30:18;;;;;;;34.30;26.27;;;;;;;9.58;61.56;100287.44;5014182;28;20494;-76
2021/10/21 05:32:46;;;;;;;32.00;25.90;;;;;;;9.42;61.50;100266.25;5014269;28;20117;-76
2021/10/21 05:35:11;;;;;;;28.58;24.15;;;;;;;8.74;61.72;100140.38;5013869;28;20041;-76
2021/10/21 05:37:37;;;;;;;30.80;25.77;;;;;;;9.73;61.75;100296.50;5013823;28;20029;-76
2021/10/21 05:40:03;;;;;;;34.85;25.60;;;;;;;9.46;61.83;100251.78;5013892;28;20030;-76
2021/10/21 05:42:28;;;;;;;40.83;29.88;;;;;;;9.83;61.64;100301.66;5013806;28;20025;-76
2021/10/21 05:44:54;;;;;;;43.55;30.02;;;;;;;9.82;61.57;100292.09;5020574;28;20112;-76
2021/10/21 05:47:19;;;;;;;33.15;25.80;;;;;;;9.87;61.59;100306.47;5032850;28;20446;-76
2021/10/21 05:49:45;;;;;;;37.13;25.52;;;;;;;9.45;61.45;100236.94;5015552;28;20033;-76
2021/10/21 05:52:11;;;;;;;42.42;26.75;;;;;;;9.67;61.33;100269.91;5031987;28;20075;-76
2021/10/21 05:54:36;;;;;;;71.30;37.85;;;;;;;9.74;61.90;100284.13;5014059;28;20502;-76
2021/10/21 05:57:02;;;;;;;57.40;39.75;;;;;;;9.63;61.48;100269.38;5015900;28;20100;-76
2021/10/21 05:59:28;;;;;;;49.92;37.53;;;;;;;9.87;61.63;100303.84;5032016;28;20021;-76
2021/10/21 06:01:54;;;;;;;43.17;33.42;;;;;;;9.88;61.93;100300.22;5033367;28;20030;-76
2021/10/21 06:04:20;;;;;;;46.45;32.72;;;;;;;9.63;61.84;100247.44;5032821;28;20600;-76
2021/10/21 06:06:45;;;;;;;44.05;30.80;;;;;;;9.96;61.86;100293.34;5031845;28;20041;-76
2021/10/21 06:09:11;;;;;;;40.63;30.65;;;;;;;9.73;61.45;100246.38;5033051;28;20033;-76
2021/10/21 06:11:39;;;;;;;47.40;31.20;;;;;;;9.65;61.51;100230.50;5031640;28;20112;-76
2021/10/21 06:14:06;;;;;;;44.58;32.17;;;;;;;9.95;61.65;100270.59;5032932;28;20033;-76
2021/10/21 06:16:32;;;;;;;46.20;33.85;;;;;;;10.21;61.72;100300.44;5031838;28;20049;-75
2021/10/21 06:18:58;;;;;;;43.80;31.92;;;;;;;10.27;61.49;100294.53;5032921;28;20029;-76
2021/10/21 06:21:25;;;;;;;38.97;30.38;;;;;;;10.31;61.32;100287.94;5032825;28;20040;-76
2021/10/21 06:23:51;;;;;;;41.63;30.17;;;;;;;10.38;61.44;100296.91;5015243;28;20429;-76
2021/10/21 06:26:17;;;;;;;51.28;36.10;;;;;;;10.43;61.61;100293.81;5015031;28;20029;-76
2021/10/21 06:28:47;;;;;;;44.35;35.05;;;;;;;10.52;61.83;100287.56;5032872;28;20032;-76
2021/10/21 06:31:13;;;;;;;47.08;35.60;;;;;;;10.61;61.71;100294.53;5032626;28;20120;-76
2021/10/21 06:33:39;;;;;;;40.30;30.17;;;;;;;10.36;61.40;100238.16;5032817;28;20112;-76
2021/10/21 06:36:04;;;;;;;40.45;31.40;;;;;;;10.24;61.79;100206.94;5032578;28;20047;-76
2021/10/21 06:38:30;;;;;;;37.65;30.50;;;;;;;10.60;61.77;100248.00;5032453;28;20033;-76
2021/10/21 06:40:55;;;;;;;40.67;28.63;;;;;;;10.82;61.18;100272.97;5010193;28;20026;-76
2021/10/21 06:43:21;;;;;;;36.00;28.27;;;;;;;10.98;61.70;100283.56;5016032;28;20037;-76
2021/10/21 06:45:46;;;;;;;36.00;28.58;;;;;;;10.91;61.97;100260.59;5005643;28;20032;-76
2021/10/21 06:48:12;;;;;;;37.00;28.50;;;;;;;11.12;61.87;100276.81;4994692;28;20053;-76
2021/10/21 06:50:37;;;;;;;34.92;27.85;;;;;;;11.21;61.63;100278.50;5023467;28;20025;-76
2021/10/21 06:53:02;;;;;;;32.67;26.17;;;;;;;10.82;62.32;100202.47;5024144;28;20383;-76
2021/10/21 06:55:28;;;;;;;30.55;26.20;;;;;;;11.32;61.79;100270.25;5011855;28;20037;-76
2021/10/21 06:57:58;;;;;;;33.17;27.42;;;;;;;10.97;62.15;100201.81;5020823;28;20025;-76
2021/10/21 07:00:25;;;;;;;33.25;24.40;;;;;;;11.48;62.14;100273.88;5011892;28;20033;-76
2021/10/21 07:02:51;;;;;;;29.05;24.40;;;;;;;11.54;62.24;100274.03;5027798;28;20479;-76
2021/10/21 07:05:19;;;;;;;30.08;25.30;;;;;;;11.63;62.45;100265.13;5008442;28;20099;-76
2021/10/21 07:07:45;;;;;;;31.17;24.42;;;;;;;11.49;61.91;100233.22;5012571;28;20029;-76
2021/10/21 07:10:11;;;;;;;29.70;23.67;;;;;;;11.13;62.74;100162.19;5021852;28;20080;-76
2021/10/21 07:12:38;;;;;;;29.45;23.77;;;;;;;11.84;62.41;100259.31;5012791;28;20502;-76
2021/10/21 07:15:06;;;;;;;33.00;26.73;;;;;;;11.67;62.47;100221.47;5020320;28;20513;-76
2021/10/21 07:17:32;;;;;;;28.92;25.60;;;;;;;11.90;62.45;100242.81;5011436;28;20160;-76
2021/10/21 07:19:57;;;;;;;30.50;23.85;;;;;;;11.98;62.54;100247.25;4993247;28;20124;-76
2021/10/21 07:22:23;;;;;;;29.50;24.35;;;;;;;11.92;62.02;100209.06;5011557;28;20030;-76
2021/10/21 07:24:48;;;;;;;26.10;23.15;;;;;;;12.05;61.90;100213.81;5011116;28;20026;-76
2021/10/21 07:27:14;;;;;;;27.73;22.63;;;;;;;12.27;62.16;100238.69;4994109;28;20026;-76
2021/10/21 07:29:39;;;;;;;32.60;22.83;;;;;;;12.33;62.32;100235.38;5013002;28;20123;-76
2021/10/21 07:32:05;;;;;;;29.40;24.88;;;;;;;12.40;62.05;100229.22;4993722;28;20487;-76
2021/10/21 07:34:30;;;;;;;26.30;22.65;;;;;;;11.97;61.64;100143.22;5028230;28;20037;-77
2021/10/21 07:36:58;;;;;;;28.38;22.45;;;;;;;12.50;61.91;100206.97;5031272;28;20064;-76
2021/10/21 07:39:24;;;;;;;25.80;22.25;;;;;;;12.43;61.46;100198.91;5017270;28;20460;-76
2021/10/21 07:41:50;;;;;;;30.98;26.88;;;;;;;12.64;61.09;100220.34;5015728;28;20038;-77
2021/10/21 07:44:16;;;;;;;31.58;25.27;;;;;;;12.52;61.59;100210.28;5017018;28;20112;-76
2021/10/21 07:46:45;;;;;;;29.35;24.90;;;;;;;12.57;61.10;100207.94;5030923;28;20513;-76
2021/10/21 07:49:11;;;;;;;28.55;25.33;;;;;;;12.42;61.56;100176.06;5024784;28;20580;-76
2021/10/21 07:51:38;;;;;;;32.03;25.50;;;;;;;12.86;61.14;100229.31;5013678;28;20107;-76
2021/10/21 07:54:04;;;;;;;33.85;26.45;;;;;;;12.92;60.65;100222.47;5018479;28;20490;-76
2021/10/21 07:56:29;;;;;;;27.20;24.23;;;;;;;12.96;60.91;100221.13;5012686;28;20032;-76
2021/10/21 07:58:55;;;;;;;32.70;26.55;;;;;;;12.94;60.56;100213.34;5025623;28;20040;-76
2021/10/21 08:01:21;;;;;;;33.83;27.42;;;;;;;12.67;60.65;100135.22;5019149;28;20509;-76
2021/10/21 08:03:46;;;;;;;35.70;27.15;;;;;;;13.19;60.31;100210.53;5015776;28;20486;-76
2021/10/21 08:06:12;;;;;;;28.85;25.65;;;;;;;13.21;59.94;100176.69;5020630;28;20108;-76
2021/10/21 08:08:38;;;;;;;34.20;30.50;;;;;;;12.99;59.52;100141.25;5012386;28;20104;-76
2021/10/21 08:11:03;;;;;;;31.35;26.35;;;;;;;13.42;60.14;100199.91;5018707;28;20109;-76
2021/10/21 08:13:29;;;;;;;30.70;25.92;;;;;;;13.28;59.84;100157.25;5018546;28;20069;-76
2021/10/21 08:15:56;;;;;;;33.72;30.08;;;;;;;13.48;60.22;100173.50;5019363;28;20049;-76
2021/10/21 08:18:22;;;;;;;37.25;31.58;;;;;;;13.23;60.40;100122.47;5010865;28;20030;-76
2021/10/21 08:20:48;;;;;;;28.50;24.55;;;;;;;13.61;59.85;100175.50;5011272;28;20438;-75
2021/10/21 08:23:13;;;;;;;25.08;21.25;;;;;;;13.42;59.59;100126.47;5008743;28;20021;-80
2021/10/21 08:25:39;;;;;;;40.53;22.67;;;;;;;13.43;59.27;100111.38;5030640;28;20035;-80
2021/10/21 08:28:04;;;;;;;52.30;23.65;;;;;;;13.80;59.17;100166.19;5021325;28;20205;-81
2021/10/21 08:30:33;;;;;;;48.17;23.42;;;;;;;13.80;58.94;100150.25;5018648;28;20038;-81
2021/10/21 08:32:59;;;;;;;76.38;24.85;;;;;;;13.54;58.47;100092.34;5004055;28;20041;-80
2021/10/21 08:35:28;;;;;;;61.67;24.27;;;;;;;14.02;58.69;100167.91;5016181;28;20030;-81
2021/10/21 08:37:53;;;;;;;127.57;29.75;;;;;;;13.93;58.43;100134.50;5023669;28;20100;-81
2021/10/21 08:40:19;;;;;;;37.95;20.38;;;;;;;14.18;58.25;100164.25;4997985;28;20137;-80
2021/10/21 08:42:45;;;;;;;20.30;16.77;;;;;;;14.20;57.78;100159.56;5030319;28;20589;-81
2021/10/21 08:45:10;;;;;;;35.97;18.40;;;;;;;13.96;57.72;100111.06;5034700;28;20029;-81
2021/10/21 08:47:42;;;;;;;169.80;32.58;;;;;;;14.19;57.43;100129.53;5034637;28;20030;-81
2021/10/21 08:50:09;;;;;;;56.78;22.30;;;;;;;14.40;57.39;100151.81;5020552;28;20040;-81
2021/10/21 08:52:35;;;;;;;37.95;18.65;;;;;;;14.45;57.38;100146.81;5001504;28;20560;-81
2021/10/21 08:55:00;;;;;;;18.50;16.60;;;;;;;14.30;57.18;100112.28;5028729;28;20029;-81
2021/10/21 08:57:27;;;;;;;19.15;16.58;;;;;;;14.35;57.00;100088.63;4997711;28;21692;-81
2021/10/21 08:59:54;;;;;;;23.80;17.80;;;;;;;13.90;57.04;99996.84;5021331;28;20056;-81
2021/10/21 09:02:23;;;;;;;26.67;21.58;;;;;;;14.78;56.81;100104.59;5028464;28;20055;-81
2021/10/21 09:05:02;;;;;;;20.08;18.00;;;;;;;14.87;56.73;100111.44;5023090;28;20033;-81
2021/10/21 09:10:13;;;;;;;30.45;16.83;;;;;;;15.13;56.19;100108.16;5020366;28;20049;-80
2021/10/21 09:12:49;;;;;;;23.38;20.38;;;;;;;15.19;56.34;100107.41;5013263;28;20041;-80
2021/10/21 09:15:20;;;;;;;18.55;16.40;;;;;;;15.27;56.28;100099.25;4999259;28;20505;-78
2021/10/21 09:17:48;;;;;;;18.30;16.35;;;;;;;15.09;56.04;100054.53;5034032;28;20084;-80
2021/10/21 09:20:20;;;;;;;19.38;17.27;;;;;;;15.50;55.78;100089.16;5033920;28;20025;-80
2021/10/21 09:22:57;;;;;;;18.98;16.17;;;;;;;15.32;55.69;100040.16;5032487;28;20383;-80
2021/10/21 09:25:26;;;;;;;21.15;17.38;;;;;;;15.37;55.96;100014.59;5021127;28;20037;-75
2021/10/21 09:27:51;;;;;;;21.83;18.17;;;;;;;15.56;55.90;100021.03;5011694;28;20422;-76
2021/10/21 09:30:29;;;;;;;18.88;16.88;;;;;;;15.65;55.45;99997.78;5011651;28;20120;-76
2021/10/21 09:33:00;;;;;;;17.80;16.00;;;;;;;15.67;54.75;99972.59;5024410;28;20558;-74
2021/10/21 09:35:26;;;;;;;15.55;13.95;;;;;;;15.75;54.89;99967.09;5021427;28;20108;-75
2021/10/21 09:37:54;;;;;;;15.38;13.77;;;;;;;15.99;55.00;99997.66;5015328;28;20120;-74
2021/10/21 09:40:28;;;;;;;15.63;14.00;;;;;;;16.25;54.71;100009.38;5023991;28;20033;-76
2021/10/21 09:43:05;;;;;;;15.23;13.65;;;;;;;16.50;54.54;100019.25;5008645;28;20037;-74
2021/10/21 09:45:36;;;;;;;17.13;15.15;;;;;;;16.73;54.72;100026.88;5017731;28;20029;-74
2021/10/21 09:48:05;;;;;;;16.63;14.93;;;;;;;16.49;54.25;99977.63;5015520;28;20037;-74
2021/10/21 09:50:34;;;;;;;17.27;13.85;;;;;;;17.00;54.26;100005.50;5020646;28;20025;-75
2021/10/21 09:53:18;;;;;;;16.17;14.48;;;;;;;17.10;53.98;100001.41;5033275;28;20029;-76
2021/10/21 09:55:48;;;;;;;15.02;13.20;;;;;;;17.20;53.89;99998.28;5027800;28;20045;-73
2021/10/21 09:58:16;;;;;;;15.35;13.75;;;;;;;17.33;53.76;99994.75;5020532;28;20083;-74
2021/10/21 10:00:43;;;;;;;20.23;18.10;;;;;;;17.27;53.59;99960.91;5028732;28;20117;-76
2021/10/21 10:03:11;;;;;;;18.88;16.90;;;;;;;17.29;53.14;99927.66;5031405;28;20025;-76
2021/10/21 10:05:39;;;;;;;16.33;13.52;;;;;;;17.68;53.32;99982.72;5013235;28;20030;-72
2021/10/21 10:08:08;;;;;;;15.88;14.30;;;;;;;17.80;52.80;99969.50;5013148;28;20025;-76
2021/10/21 10:10:39;;;;;;;16.23;14.23;;;;;;;17.71;52.53;99938.75;5013475;28;20032;-76
2021/10/21 10:13:05;;;;;;;18.73;15.83;;;;;;;18.02;52.31;99964.69;5019711;28;20029;-77
2021/10/21 10:15:34;;;;;;;15.88;13.63;;;;;;;17.63;52.25;99898.91;5022820;28;20650;-76
2021/10/21 10:18:00;;;;;;;13.95;12.68;;;;;;;18.20;51.79;99950.56;5052863;28;20028;-75
2021/10/21 10:20:27;;;;;;;15.80;12.27;;;;;;;17.92;51.30;99889.53;5032671;28;20029;-75
2021/10/21 10:22:54;;;;;;;14.50;13.02;;;;;;;18.30;51.16;99933.00;5032370;28;20033;-75
2021/10/21 10:25:21;;;;;;;14.05;12.38;;;;;;;18.35;50.50;99929.66;5044761;28;20408;-75
2021/10/21 10:27:57;;;;;;;16.38;14.70;;;;;;;18.44;50.20;99936.38;5048988;28;20021;-75
2021/10/21 10:30:50;;;;;;;31.42;15.05;;;;;;;18.53;50.30;99923.53;5047931;28;20139;-75
2021/10/21 10:33:42;;;;;;;13.82;12.45;;;;;;;18.20;50.04;99843.66;5052366;28;20020;-75
2021/10/21 10:36:24;;;;;;;13.52;12.23;;;;;;;18.54;49.51;99880.53;5033436;28;20041;-76
2021/10/21 10:39:01;;;;;;;15.07;13.48;;;;;;;18.73;49.16;99887.59;5014201;28;20044;-76
2021/10/21 10:41:41;;;;;;;18.70;16.70;;;;;;;18.94;48.94;99901.56;5014634;28;20441;-75
2021/10/21 10:44:36;;;;;;;16.08;13.20;;;;;;;19.02;48.82;99886.03;5033216;28;20168;-75
2021/10/21 10:47:03;;;;;;;12.70;11.48;;;;;;;19.18;48.75;99891.78;5001023;28;20049;-75
2021/10/21 10:49:41;;;;;;;15.73;12.90;;;;;;;19.28;48.55;99876.00;5038585;28;20568;-75
2021/10/21 10:52:10;;;;;;;15.13;13.48;;;;;;;19.39;47.88;99872.59;5036260;28;20025;-75
2021/10/21 10:55:02;;;;;;;17.83;15.60;;;;;;;19.46;47.24;99877.84;5044825;28;20075;-75
2021/10/21 10:57:28;;;;;;;14.52;12.75;;;;;;;19.52;47.18;99869.75;5046586;28;20034;-75
2021/10/21 10:59:56;;;;;;;12.98;11.68;;;;;;;19.57;46.78;99859.19;5034288;28;20025;-75
2021/10/21 11:02:24;;;;;;;13.68;12.30;;;;;;;19.62;46.87;99869.19;5039509;28;20028;-75
2021/10/21 11:04:56;;;;;;;11.25;10.15;;;;;;;19.68;46.61;99861.06;5043249;28;20103;-76
2021/10/21 11:07:39;;;;;;;17.92;15.93;;;;;;;19.75;46.69;99860.16;5049437;28;20502;-76
2021/10/21 11:10:14;;;;;;;13.93;12.32;;;;;;;19.76;46.81;99856.41;5050733;28;20521;-76
2021/10/21 11:12:40;;;;;;;12.50;11.20;;;;;;;19.48;46.69;99800.78;5046433;28;20025;-76
2021/10/21 11:15:34;;;;;;;12.75;11.38;;;;;;;19.76;46.83;99843.03;5019997;28;20075;-76